createdAt,value
2023-04-21T00:01:20.046Z,10.00
2023-04-21T00:05:21.167Z,10.30
2023-04-21T00:09:22.234Z,10.80
2023-04-21T00:13:23.390Z,10.70
2023-04-21T00:17:24.374Z,10.80
2023-04-21T00:21:26.038Z,10.90
2023-04-21T00:25:27.369Z,10.50
2023-04-21T00:29:28.571Z,10.40
2023-04-21T00:33:29.618Z,9.80
2023-04-21T00:37:30.800Z,9.40
2023-04-21T00:41:34.637Z,10.20
2023-04-21T00:45:35.612Z,9.80
2023-04-21T00:49:36.730Z,10.20
2023-04-21T00:53:37.840Z,9.90
2023-04-21T00:57:39.100Z,10.40
2023-04-21T01:01:40.814Z,10.40
2023-04-21T01:05:41.997Z,10.00
2023-04-21T01:09:43.026Z,10.20
2023-04-21T01:13:44.038Z,10.50
2023-04-21T01:17:45.092Z,10.20
2023-04-21T01:21:46.520Z,10.00
2023-04-21T01:25:47.622Z,10.30
2023-04-21T01:29:51.233Z,10.40
2023-04-21T01:33:52.226Z,10.00
2023-04-21T01:37:53.348Z,10.00
2023-04-21T01:41:57.242Z,9.50
2023-04-21T01:45:58.274Z,9.40
2023-04-21T01:49:59.522Z,9.40
2023-04-21T01:54:00.953Z,9.40
2023-04-21T01:58:02.039Z,9.30
2023-04-21T02:02:03.242Z,9.40
2023-04-21T02:06:05.435Z,9.70
2023-04-21T02:10:06.985Z,9.60
2023-04-21T02:14:07.988Z,9.80
2023-04-21T02:18:09.759Z,9.70
2023-04-21T02:22:12.193Z,9.70
2023-04-21T02:26:13.233Z,10.20
2023-04-21T02:30:14.331Z,10.80
2023-04-21T02:34:15.360Z,10.50
2023-04-21T02:38:16.449Z,10.70
2023-04-21T02:42:17.451Z,11.10
2023-04-21T02:46:18.528Z,11.10
2023-04-21T02:50:19.797Z,10.70
2023-04-21T02:54:20.872Z,10.80
2023-04-21T02:58:22.089Z,10.40
2023-04-21T03:02:23.103Z,10.80
2023-04-21T03:06:24.089Z,11.10
2023-04-21T03:10:25.301Z,10.20
2023-04-21T03:14:26.352Z,10.00
2023-04-21T03:18:27.527Z,10.20
2023-04-21T03:22:28.636Z,10.40
2023-04-21T03:26:29.812Z,10.80
2023-04-21T03:30:30.970Z,11.00
2023-04-21T03:34:31.934Z,10.60
2023-04-21T03:38:32.920Z,10.60
2023-04-21T03:42:34.837Z,10.80
2023-04-21T03:46:35.854Z,11.00
2023-04-21T03:50:37.841Z,11.00
2023-04-21T03:54:38.832Z,11.10
2023-04-21T03:58:39.922Z,9.60
2023-04-21T04:02:41.215Z,9.90
2023-04-21T04:06:42.408Z,10.50
2023-04-21T04:10:43.413Z,10.80
2023-04-21T04:14:44.379Z,10.70
2023-04-21T04:18:45.377Z,11.00
2023-04-21T04:22:46.630Z,10.90
2023-04-21T04:26:47.617Z,11.00
2023-04-21T04:30:48.676Z,10.80
2023-04-21T04:34:51.560Z,10.40
2023-04-21T04:38:52.578Z,10.80
2023-04-21T04:42:54.177Z,10.50
2023-04-21T04:46:55.954Z,11.00
2023-04-21T04:50:57.082Z,11.20
2023-04-21T04:54:58.035Z,11.20
2023-04-21T04:58:58.987Z,11.10
2023-04-21T05:03:00.241Z,11.20
2023-04-21T05:07:01.430Z,11.10
2023-04-21T05:11:02.489Z,10.60
2023-04-21T05:15:04.673Z,10.70
2023-04-21T05:19:05.772Z,11.00
2023-04-21T05:23:06.937Z,11.00
2023-04-21T05:27:07.868Z,11.30
2023-04-21T05:31:08.743Z,11.00
2023-04-21T05:35:10.116Z,11.30
2023-04-21T05:39:11.227Z,11.10
2023-04-21T05:43:12.224Z,11.10
2023-04-21T05:47:13.312Z,10.70
2023-04-21T05:51:15.354Z,11.10
2023-04-21T05:55:16.375Z,11.20
2023-04-21T05:59:17.516Z,11.10
2023-04-21T06:03:18.506Z,11.40
2023-04-21T06:07:20.085Z,11.60
2023-04-21T06:11:21.700Z,11.70
2023-04-21T06:15:22.637Z,11.90
2023-04-21T06:19:23.860Z,11.90
2023-04-21T06:23:24.817Z,11.70
2023-04-21T06:27:25.925Z,11.80
2023-04-21T06:31:27.331Z,11.70
2023-04-21T06:35:28.252Z,11.80
2023-04-21T06:39:29.937Z,12.10
2023-04-21T06:43:31.077Z,12.20
2023-04-21T06:47:32.316Z,12.30
2023-04-21T06:51:33.325Z,12.50
2023-04-21T06:55:34.288Z,12.30
2023-04-21T06:59:35.282Z,12.40
2023-04-21T07:03:36.515Z,12.80
2023-04-21T07:07:37.702Z,13.10
2023-04-21T07:11:38.807Z,13.50
2023-04-21T07:15:40.532Z,13.70
2023-04-21T07:19:41.590Z,13.10
2023-04-21T07:23:42.664Z,13.80
2023-04-21T07:27:43.767Z,14.10
2023-04-21T07:31:46.667Z,14.40
2023-04-21T07:35:47.700Z,14.50
2023-04-21T07:39:48.688Z,14.20
2023-04-21T07:43:50.445Z,14.60
2023-04-21T07:47:52.664Z,14.60
2023-04-21T07:51:53.636Z,14.80
2023-04-21T07:55:57.485Z,15.00
2023-04-21T07:59:58.787Z,15.00
2023-04-21T08:03:59.910Z,15.20
2023-04-21T08:08:01.442Z,15.50
2023-04-21T08:12:02.652Z,16.20
2023-04-21T08:16:04.240Z,16.60
2023-04-21T08:20:06.381Z,16.80
2023-04-21T08:24:07.683Z,16.60
2023-04-21T08:28:08.821Z,16.40
2023-04-21T08:32:10.086Z,16.30
2023-04-21T08:36:21.872Z,16.40
2023-04-21T08:40:14.263Z,16.60
2023-04-21T08:44:15.241Z,16.80
2023-04-21T08:48:19.654Z,16.40
2023-04-21T08:52:20.818Z,15.90
2023-04-21T08:56:26.671Z,17.20
2023-04-21T09:00:28.035Z,16.30
2023-04-21T09:04:30.222Z,15.60
2023-04-21T09:08:32.418Z,16.80
2023-04-21T09:12:33.539Z,16.80
2023-04-21T09:16:34.898Z,16.40
2023-04-21T09:20:36.224Z,16.90
2023-04-21T09:24:41.171Z,16.90
2023-04-21T09:28:47.732Z,15.50
2023-04-21T09:32:49.265Z,13.80
2023-04-21T09:37:02.431Z,14.00
2023-04-21T09:41:03.686Z,14.50
2023-04-21T09:49:10.150Z,14.80
2023-04-21T09:53:16.552Z,15.30
2023-04-21T09:57:23.381Z,13.90
2023-04-21T10:01:27.112Z,13.10
2023-04-21T10:05:28.535Z,13.80
2023-04-21T10:09:45.373Z,14.30
2023-04-21T10:13:46.672Z,14.50
2023-04-21T10:17:49.690Z,12.50
2023-04-21T10:21:50.835Z,13.80
2023-04-21T10:25:52.089Z,13.40
2023-04-21T10:29:56.993Z,13.10
2023-04-21T10:34:11.938Z,14.20
2023-04-21T10:38:16.845Z,14.30
2023-04-21T10:42:29.456Z,13.60
2023-04-21T10:46:36.307Z,15.10
2023-04-21T10:50:39.568Z,15.10
2023-04-21T10:54:47.297Z,15.00
2023-04-21T10:58:49.662Z,16.60
2023-04-21T11:02:58.830Z,14.70
2023-04-21T11:07:09.904Z,15.50
2023-04-21T11:11:14.825Z,14.90
2023-04-21T11:15:16.218Z,16.40
2023-04-21T11:19:17.771Z,16.40
2023-04-21T11:23:18.816Z,15.80
2023-04-21T11:27:21.796Z,15.60
2023-04-21T11:31:25.119Z,15.30
2023-04-21T11:35:26.300Z,15.90
2023-04-21T11:39:27.329Z,16.70
2023-04-21T11:43:28.487Z,16.50
2023-04-21T11:47:29.880Z,17.10
2023-04-21T11:51:43.756Z,16.50
2023-04-21T11:55:47.734Z,17.50
2023-04-21T11:59:48.823Z,16.70
2023-04-21T12:03:56.425Z,17.10
2023-04-21T12:07:57.823Z,16.60
2023-04-21T12:11:59.350Z,17.10
2023-04-21T12:16:02.813Z,17.10
2023-04-21T12:20:09.142Z,18.10
2023-04-21T12:24:10.160Z,16.10
2023-04-21T12:28:11.298Z,16.50
2023-04-21T12:32:12.503Z,17.20
2023-04-21T12:36:13.780Z,15.90
2023-04-21T12:40:15.250Z,17.20
2023-04-21T12:44:16.432Z,18.00
2023-04-21T12:48:19.357Z,17.70
2023-04-21T12:52:20.636Z,18.60
2023-04-21T12:56:21.622Z,18.00
2023-04-21T13:00:22.637Z,18.40
2023-04-21T13:04:23.873Z,19.60
2023-04-21T13:08:25.693Z,17.50
2023-04-21T13:12:26.994Z,19.60
2023-04-21T13:16:30.180Z,19.80
2023-04-21T13:20:30.985Z,18.80
2023-04-21T13:24:32.400Z,20.80
2023-04-21T13:28:33.480Z,22.70
2023-04-21T13:32:34.739Z,22.40
2023-04-21T13:36:35.856Z,20.50
2023-04-21T13:40:39.580Z,20.50
2023-04-21T13:44:40.511Z,18.80
2023-04-21T13:48:41.753Z,21.40
2023-04-21T13:52:42.722Z,21.50
2023-04-21T13:56:43.794Z,19.90
2023-04-21T14:00:44.896Z,20.90
2023-04-21T14:04:46.485Z,22.30
2023-04-21T14:08:47.753Z,21.90
2023-04-21T14:12:48.854Z,22.80
2023-04-21T14:16:50.197Z,22.30
2023-04-21T14:20:51.398Z,20.90
2023-04-21T14:24:52.354Z,19.30
2023-04-21T14:28:53.474Z,19.40
2023-04-21T14:32:55.091Z,20.80
2023-04-21T14:36:56.255Z,22.10
2023-04-21T14:40:57.224Z,23.10
2023-04-21T14:44:58.236Z,22.90
2023-04-21T14:48:59.509Z,20.40
2023-04-21T14:53:00.607Z,20.70
2023-04-21T14:57:17.966Z,22.30
2023-04-21T15:01:05.158Z,22.90
2023-04-21T15:05:08.105Z,22.40
2023-04-21T15:09:09.247Z,22.50
2023-04-21T15:13:11.437Z,21.70
2023-04-21T15:17:12.696Z,22.00
2023-04-21T15:21:13.882Z,21.40
2023-04-21T15:25:14.836Z,21.90
2023-04-21T15:29:16.013Z,22.00
2023-04-21T15:33:17.223Z,21.60
2023-04-21T15:37:19.424Z,21.40
2023-04-21T15:41:20.600Z,20.70
2023-04-21T15:45:21.669Z,21.20
2023-04-21T15:49:37.029Z,20.40
2023-04-21T15:53:26.364Z,20.70
2023-04-21T15:57:27.606Z,20.90
2023-04-21T16:01:29.135Z,21.00
2023-04-21T16:05:30.681Z,19.70
2023-04-21T16:09:31.844Z,21.20
2023-04-21T16:13:33.642Z,21.30
2023-04-21T16:17:36.061Z,19.00
2023-04-21T16:21:39.282Z,20.20
2023-04-21T16:25:41.237Z,20.90
2023-04-21T16:29:42.611Z,20.20
2023-04-21T16:33:43.490Z,19.00
2023-04-21T16:37:44.842Z,19.50
2023-04-21T16:41:45.897Z,19.90
2023-04-21T16:45:46.998Z,19.90
2023-04-21T16:49:47.954Z,19.10
2023-04-21T16:53:49.161Z,19.80
2023-04-21T16:57:50.260Z,20.70
2023-04-21T17:01:51.273Z,21.50
2023-04-21T17:05:52.803Z,21.10
2023-04-21T17:09:53.763Z,21.00
2023-04-21T17:13:54.905Z,21.30
2023-04-21T17:17:56.184Z,21.60
2023-04-21T17:21:57.363Z,20.90
2023-04-21T17:25:58.603Z,20.30
2023-04-21T17:29:59.897Z,20.90
2023-04-21T17:34:00.997Z,21.10
2023-04-21T17:38:02.477Z,21.10
2023-04-21T17:42:04.352Z,21.20
2023-04-21T17:46:06.849Z,20.00
2023-04-21T17:50:10.924Z,20.50
2023-04-21T17:54:11.914Z,20.80
2023-04-21T17:58:13.016Z,20.80
2023-04-21T18:02:14.391Z,20.80
2023-04-21T18:06:15.786Z,20.70
2023-04-21T18:10:16.771Z,20.10
2023-04-21T18:14:17.834Z,19.90
2023-04-21T18:18:18.825Z,19.80
2023-04-21T18:22:19.943Z,19.80
2023-04-21T18:26:20.982Z,19.60
2023-04-21T18:30:22.304Z,19.10
2023-04-21T18:34:23.602Z,17.80
2023-04-21T18:38:24.604Z,17.00
2023-04-21T18:42:26.165Z,16.50
2023-04-21T18:46:27.300Z,17.50
2023-04-21T18:50:28.456Z,17.80
2023-04-21T18:54:29.824Z,17.70
2023-04-21T18:58:30.801Z,18.40
2023-04-21T19:02:32.507Z,18.80
2023-04-21T19:06:35.211Z,18.50
2023-04-21T19:10:37.386Z,18.20
2023-04-21T19:14:46.671Z,17.20
2023-04-21T19:18:42.087Z,17.30
2023-04-21T19:22:43.887Z,16.80
2023-04-21T19:26:45.283Z,16.50
2023-04-21T19:30:47.738Z,17.40
2023-04-21T19:34:49.065Z,17.60
2023-04-21T19:38:50.456Z,17.50
2023-04-21T19:42:51.583Z,17.00
2023-04-21T19:46:52.995Z,16.40
2023-04-21T19:50:54.169Z,17.50
2023-04-21T19:54:55.707Z,17.80
2023-04-21T19:58:58.697Z,18.10
2023-04-21T20:03:00.012Z,17.60
2023-04-21T20:07:01.653Z,18.10
2023-04-21T20:11:02.616Z,17.80
2023-04-21T20:15:05.008Z,17.30
2023-04-21T20:19:06.477Z,17.60
2023-04-21T20:23:07.612Z,17.60
2023-04-21T20:27:08.986Z,17.60
2023-04-21T20:31:10.194Z,17.60
2023-04-21T20:35:14.825Z,17.30
2023-04-21T20:39:17.036Z,16.90
2023-04-21T20:43:18.252Z,16.90
2023-04-21T20:47:19.427Z,16.70
2023-04-21T20:51:20.435Z,16.40
2023-04-21T20:55:21.434Z,16.60
2023-04-21T20:59:22.566Z,15.30
2023-04-21T21:03:23.921Z,15.50
2023-04-21T21:07:25.158Z,15.20
2023-04-21T21:11:26.500Z,15.80
2023-04-21T21:15:29.919Z,16.00
2023-04-21T21:19:30.986Z,16.60
2023-04-21T21:23:32.306Z,16.20
2023-04-21T21:27:33.482Z,15.50
2023-04-21T21:31:35.212Z,15.50
2023-04-21T21:35:36.393Z,15.90
2023-04-21T21:39:37.791Z,15.80
2023-04-21T21:43:39.183Z,15.90
2023-04-21T21:47:43.874Z,15.90
2023-04-21T21:51:43.346Z,15.90
2023-04-21T21:55:44.645Z,15.10
2023-04-21T21:59:46.526Z,15.10
2023-04-21T22:03:47.643Z,15.10
2023-04-21T22:07:48.909Z,15.10
2023-04-21T22:11:52.776Z,14.90
2023-04-21T22:15:53.921Z,15.30
2023-04-21T22:19:55.377Z,15.20
2023-04-21T22:23:56.604Z,15.50
2023-04-21T22:27:57.908Z,14.90
2023-04-21T22:31:59.386Z,15.40
2023-04-21T22:36:02.852Z,14.90
2023-04-21T22:40:05.413Z,13.50
2023-04-21T22:44:06.517Z,13.20
2023-04-21T22:48:08.890Z,14.00
2023-04-21T22:52:10.440Z,14.00
2023-04-21T22:56:11.495Z,14.40
2023-04-21T23:00:14.923Z,14.10
2023-04-21T23:04:15.937Z,13.60
2023-04-21T23:08:16.911Z,14.50
2023-04-21T23:12:18.096Z,14.40
2023-04-21T23:16:19.222Z,15.10
2023-04-21T23:20:20.566Z,13.80
2023-04-21T23:24:21.652Z,14.40
2023-04-21T23:28:23.610Z,14.70
2023-04-21T23:32:24.854Z,14.80
2023-04-21T23:36:26.600Z,14.00
2023-04-21T23:40:27.689Z,13.60
2023-04-21T23:44:28.799Z,14.40
2023-04-21T23:48:30.274Z,14.50
2023-04-21T23:52:31.473Z,14.70
2023-04-21T23:56:32.747Z,14.30
